עמוד ראשי
METAR-TAF:

METAR-TAF

שדות תעופה :

נמל התעופה רמון

אילת, ישראל

קו רוחב: 29-43-25N, קו אורך: 35-00-41E, גובה: 88מטר

תצפית מזג אוויר נוכחית

הדו"ח נערך לפני 17דקות, בשעה 19:50 UTC
רוח 16קשר מכיוון צפון
טמפרטורת 37 צלסיוס
לחות 20%
לחץ 1007 hPa
ראות 10 קילומטר או יותר
ללא עננים שבסיסם נמוך מ 5000 רגל או קומולונימבוס

METAR: LLER 131950Z 36016KT CAVOK 37/10 Q1007

זמן: 23:07 (20:07 UTC)

תחזית

הדו"ח נערך לפני 3 שעות ו 6דקות, בשעה 17:01 UTC
תחזית בתוקף מ 13 ב 18 UTC עד 14 ב 18 UTC
רוח 10קשר מכיוון צפון
ראות 10 קילומטר או יותר
ללא עננים שבסיסם נמוך מ 5000 רגל או קומולונימבוס
יעשה מ
14 ב 04 UTC עד 14 ב 06 UTC
רוח 16קשר מכיוון צפון/צפון-מזרח
הסתברות 40% :
זמנית מ -
14 ב 06 UTC עד 14 ב 15 UTC
רוח 20קשר מכיוון צפון/צפון-מזרח עם משבים עד 30קשר
יעשה מ
14 ב 15 UTC עד 14 ב 17 UTC
רוח 10קשר מכיוון צפון/צפון-מערב

TAF: LLER 131701Z 1318/1418 35010KT CAVOK BECMG 1404/1406 02016KT PROB40 TEMPO 1406/1415 02020G30KT BECMG 1415/1417 33010KT TX45/1412Z TN29/1403Z

תצפיות ותחזיות מזג אוויר לגבי יותר מ- 4,000 שדות תעופה ברחבי העולם. דוחות METAR ו- TAF.

התחנות הזמינות מסומנות בנקודות צהובות ואדומות על גבי המפה.

העבר את העכבר לנקודה הצבעונית על מנת לראות את שם התחנה.

לאחר מכן, לחץ כדי לראות את תוכן ואת תחזיות מזג האוויר.

כדי לשנות את המפה: לחץ על הכפתורים הירוקים עם הפלוס השחור כדי להתקרב; על הכפתור הירוק עם המקף כדי להתרחק; או בחיצים הירוקים למפות סמוכות.


METAR-TAF: